createdAt,value
2023-05-13T00:00:59.631Z,13.12
2023-05-13T00:03:26.406Z,13.12
2023-05-13T00:05:53.168Z,12.14
2023-05-13T00:08:20.339Z,12.44
2023-05-13T00:10:47.055Z,12.45
2023-05-13T00:13:13.796Z,12.12
2023-05-13T00:15:40.907Z,12.25
2023-05-13T00:18:07.748Z,12.15
2023-05-13T00:20:34.464Z,12.94
2023-05-13T00:23:01.125Z,12.88
2023-05-13T00:25:27.847Z,12.01
2023-05-13T00:27:54.652Z,11.83
2023-05-13T00:30:21.492Z,12.22
2023-05-13T00:32:48.454Z,11.43
2023-05-13T00:35:15.135Z,11.77
2023-05-13T00:37:41.997Z,12.44
2023-05-13T00:40:16.307Z,12.55
2023-05-13T00:42:42.972Z,12.32
2023-05-13T00:45:09.896Z,12.08
2023-05-13T00:47:36.620Z,12.04
2023-05-13T00:50:03.483Z,12.36
2023-05-13T00:52:30.125Z,12.79
2023-05-13T00:54:56.773Z,12.26
2023-05-13T00:57:23.466Z,12.35
2023-05-13T00:59:50.228Z,12.27
2023-05-13T01:02:27.712Z,11.86
2023-05-13T01:05:10.054Z,12.34
2023-05-13T01:07:49.105Z,11.98
2023-05-13T01:10:22.342Z,12.53
2023-05-13T01:12:53.494Z,12.09
2023-05-13T01:15:26.338Z,12.30
2023-05-13T01:18:01.664Z,11.97
2023-05-13T01:20:28.691Z,12.24
2023-05-13T01:22:56.796Z,12.27
2023-05-13T01:25:24.167Z,12.03
2023-05-13T01:27:50.852Z,12.22
2023-05-13T01:30:17.731Z,12.26
2023-05-13T01:32:44.846Z,12.27
2023-05-13T01:35:12.120Z,11.83
2023-05-13T01:37:39.164Z,12.55
2023-05-13T01:40:17.004Z,12.00
2023-05-13T01:42:47.396Z,12.20
2023-05-13T01:45:14.404Z,12.41
2023-05-13T01:47:41.220Z,12.69
2023-05-13T01:50:08.797Z,12.29
2023-05-13T01:52:35.490Z,12.64
2023-05-13T01:55:02.255Z,12.46
2023-05-13T01:57:28.941Z,11.94
2023-05-13T01:59:56.183Z,12.28
2023-05-13T02:02:22.862Z,12.47
2023-05-13T02:04:49.490Z,12.57
2023-05-13T02:07:16.158Z,12.39
2023-05-13T02:09:43.033Z,11.78
2023-05-13T02:12:09.685Z,12.30
2023-05-13T02:14:36.334Z,12.39
2023-05-13T02:17:03.514Z,11.58
2023-05-13T02:19:30.341Z,12.11
2023-05-13T02:21:56.969Z,12.04
2023-05-13T02:24:23.628Z,12.47
2023-05-13T02:26:50.316Z,11.76
2023-05-13T02:29:16.965Z,11.97
2023-05-13T02:31:43.816Z,11.59
2023-05-13T02:34:10.511Z,11.94
2023-05-13T02:36:37.230Z,11.91
2023-05-13T02:39:03.933Z,11.60
2023-05-13T02:41:31.029Z,12.10
2023-05-13T02:43:57.862Z,11.98
2023-05-13T02:46:24.516Z,11.74
2023-05-13T02:48:51.231Z,11.96
2023-05-13T02:51:17.902Z,12.20
2023-05-13T02:53:44.544Z,12.40
2023-05-13T02:56:11.201Z,12.07
2023-05-13T02:58:37.883Z,11.88
2023-05-13T03:01:04.541Z,11.94
2023-05-13T03:03:31.362Z,12.30
2023-05-13T03:05:58.403Z,12.26
2023-05-13T03:08:25.077Z,12.30
2023-05-13T03:10:52.011Z,12.62
2023-05-13T03:13:18.731Z,12.70
2023-05-13T03:15:45.443Z,12.26
2023-05-13T03:18:12.132Z,11.67
2023-05-13T03:20:38.866Z,12.84
2023-05-13T03:23:05.552Z,12.43
2023-05-13T03:25:32.180Z,12.79
2023-05-13T03:27:58.870Z,12.09
2023-05-13T03:30:25.580Z,12.15
2023-05-13T03:32:52.292Z,12.30
2023-05-13T03:35:18.982Z,12.33
2023-05-13T03:37:45.673Z,12.24
2023-05-13T03:40:12.871Z,12.14
2023-05-13T03:42:39.589Z,12.21
2023-05-13T03:45:06.554Z,11.80
2023-05-13T03:47:33.228Z,11.95
2023-05-13T03:49:59.896Z,11.84
2023-05-13T03:52:26.631Z,11.96
2023-05-13T03:54:53.274Z,12.13
2023-05-13T03:57:19.911Z,11.65
2023-05-13T03:59:46.527Z,11.67
2023-05-13T04:02:13.621Z,12.00
2023-05-13T04:04:40.371Z,11.38
2023-05-13T04:07:06.993Z,12.14
2023-05-13T04:09:33.640Z,11.61
2023-05-13T04:12:00.282Z,12.02
2023-05-13T04:14:27.054Z,12.14
2023-05-13T04:16:53.796Z,12.09
2023-05-13T04:19:20.467Z,11.68
2023-05-13T04:21:47.158Z,11.54
2023-05-13T04:24:13.832Z,11.71
2023-05-13T04:26:40.449Z,11.57
2023-05-13T04:29:07.096Z,11.50
2023-05-13T04:31:33.810Z,11.12
2023-05-13T04:34:00.538Z,11.57
2023-05-13T04:36:27.198Z,11.72
2023-05-13T04:38:55.162Z,11.49
2023-05-13T04:41:21.857Z,11.54
2023-05-13T04:43:48.530Z,11.37
2023-05-13T04:46:15.263Z,11.90
2023-05-13T04:48:42.178Z,12.31
2023-05-13T04:51:09.285Z,11.80
2023-05-13T04:53:36.493Z,11.74
2023-05-13T04:56:03.189Z,11.69
2023-05-13T04:58:29.908Z,11.91
2023-05-13T05:00:57.587Z,11.40
2023-05-13T05:03:24.672Z,10.98
2023-05-13T05:05:51.413Z,11.08
2023-05-13T05:08:18.043Z,11.39
2023-05-13T05:10:44.746Z,11.07
2023-05-13T05:13:11.451Z,11.34
2023-05-13T05:15:38.134Z,11.40
2023-05-13T05:18:06.750Z,11.78
2023-05-13T05:20:33.563Z,10.96
2023-05-13T05:23:00.411Z,11.47
2023-05-13T05:25:27.118Z,11.22
2023-05-13T05:27:53.795Z,11.81
2023-05-13T05:30:20.661Z,11.36
2023-05-13T05:32:47.735Z,11.92
2023-05-13T05:35:16.031Z,11.77
2023-05-13T05:37:42.789Z,11.91
2023-05-13T05:40:09.697Z,11.97
2023-05-13T05:42:36.541Z,12.11
2023-05-13T05:45:03.261Z,12.22
2023-05-13T05:47:29.910Z,11.39
2023-05-13T05:49:56.583Z,11.53
2023-05-13T05:52:23.245Z,11.37
2023-05-13T05:54:49.981Z,11.58
2023-05-13T05:57:16.651Z,11.48
2023-05-13T05:59:43.345Z,11.46
2023-05-13T06:02:10.096Z,11.73
2023-05-13T06:04:36.860Z,11.72
2023-05-13T06:07:03.648Z,11.30
2023-05-13T06:09:30.622Z,11.67
2023-05-13T06:11:57.254Z,10.75
2023-05-13T06:14:23.888Z,10.81
2023-05-13T06:16:50.547Z,11.18
2023-05-13T06:19:17.178Z,11.03
2023-05-13T06:21:45.291Z,11.24
2023-05-13T06:24:11.996Z,10.98
2023-05-13T06:26:38.647Z,10.94
2023-05-13T06:29:05.334Z,10.81
2023-05-13T06:31:32.039Z,10.98
2023-05-13T06:33:58.784Z,11.55
2023-05-13T06:36:25.436Z,11.35
2023-05-13T06:38:52.179Z,11.23
2023-05-13T06:41:18.872Z,11.92
2023-05-13T06:43:46.453Z,12.12
2023-05-13T06:46:13.160Z,11.91
2023-05-13T06:48:39.816Z,12.14
2023-05-13T06:51:06.555Z,12.14
2023-05-13T06:53:33.304Z,12.05
2023-05-13T06:55:59.939Z,12.52
2023-05-13T06:58:26.610Z,12.11
2023-05-13T07:00:53.304Z,12.49
2023-05-13T07:03:20.029Z,12.70
2023-05-13T07:05:46.776Z,12.78
2023-05-13T07:08:17.996Z,12.64
2023-05-13T07:10:45.237Z,12.82
2023-05-13T07:13:11.976Z,12.54
2023-05-13T07:15:38.663Z,12.33
2023-05-13T07:18:05.382Z,12.13
2023-05-13T07:20:32.154Z,12.09
2023-05-13T07:22:59.016Z,12.52
2023-05-13T07:25:25.703Z,12.64
2023-05-13T07:27:52.369Z,13.05
2023-05-13T07:30:19.166Z,13.07
2023-05-13T07:32:45.957Z,12.83
2023-05-13T07:35:12.798Z,12.33
2023-05-13T07:37:39.506Z,12.73
2023-05-13T07:40:06.795Z,12.62
2023-05-13T07:42:33.612Z,12.65
2023-05-13T07:45:00.433Z,13.02
2023-05-13T07:47:29.334Z,12.77
2023-05-13T07:49:56.085Z,12.98
2023-05-13T07:52:22.830Z,12.84
2023-05-13T07:54:49.590Z,12.87
2023-05-13T07:57:16.289Z,12.60
2023-05-13T07:59:44.762Z,12.70
2023-05-13T08:02:12.099Z,12.76
2023-05-13T08:04:38.904Z,12.95
2023-05-13T08:07:05.797Z,13.08
2023-05-13T08:09:32.462Z,12.89
2023-05-13T08:11:59.199Z,12.96
2023-05-13T08:14:25.836Z,12.85
2023-05-13T08:16:53.066Z,12.75
2023-05-13T08:19:19.912Z,12.55
2023-05-13T08:21:46.600Z,13.13
2023-05-13T08:24:13.316Z,13.24
2023-05-13T08:26:40.003Z,12.95
2023-05-13T08:29:06.778Z,13.06
2023-05-13T08:31:33.496Z,13.63
2023-05-13T08:34:00.207Z,13.55
2023-05-13T08:36:27.411Z,13.12
2023-05-13T08:38:54.062Z,13.04
2023-05-13T08:41:22.958Z,13.58
2023-05-13T08:43:50.085Z,13.38
2023-05-13T08:46:17.276Z,13.49
2023-05-13T08:48:44.277Z,13.46
2023-05-13T08:51:11.138Z,13.14
2023-05-13T08:53:39.492Z,13.15
2023-05-13T08:56:08.011Z,13.03
2023-05-13T08:58:34.662Z,13.06
2023-05-13T09:01:01.927Z,12.98
2023-05-13T09:03:29.300Z,12.90
2023-05-13T09:05:56.570Z,13.13
2023-05-13T09:08:23.245Z,13.57
2023-05-13T09:10:50.124Z,13.35
2023-05-13T09:13:17.544Z,13.23
2023-05-13T09:15:44.540Z,13.38
2023-05-13T09:18:11.577Z,13.27
2023-05-13T09:20:38.298Z,13.31
2023-05-13T09:23:09.378Z,13.15
2023-05-13T09:25:37.765Z,13.48
2023-05-13T09:28:05.551Z,13.34
2023-05-13T09:30:46.611Z,13.49
2023-05-13T09:33:14.677Z,13.62
2023-05-13T09:35:41.533Z,13.90
2023-05-13T09:38:15.941Z,14.03
2023-05-13T09:40:49.993Z,13.40
2023-05-13T09:43:16.700Z,14.29
2023-05-13T09:45:43.373Z,13.59
2023-05-13T09:48:11.541Z,13.64
2023-05-13T09:50:47.065Z,13.71
2023-05-13T09:53:13.811Z,14.01
2023-05-13T09:55:44.634Z,13.95
2023-05-13T09:58:12.903Z,14.24
2023-05-13T10:00:40.837Z,14.82
2023-05-13T10:03:08.289Z,14.57
2023-05-13T10:05:35.122Z,13.86
2023-05-13T10:08:02.717Z,13.58
2023-05-13T10:10:32.916Z,14.22
2023-05-13T10:13:04.278Z,14.79
2023-05-13T10:15:31.215Z,14.27
2023-05-13T10:17:59.195Z,14.39
2023-05-13T10:20:29.344Z,13.78
2023-05-13T10:22:56.709Z,14.01
2023-05-13T10:25:23.725Z,14.49
2023-05-13T10:27:51.323Z,14.64
2023-05-13T10:30:18.535Z,14.61
2023-05-13T10:32:45.693Z,14.94
2023-05-13T10:35:13.895Z,15.01
2023-05-13T10:37:59.236Z,15.21
2023-05-13T10:40:44.881Z,14.46
2023-05-13T10:43:11.950Z,15.12
2023-05-13T10:45:38.612Z,14.90
2023-05-13T10:48:08.995Z,14.49
2023-05-13T10:50:41.696Z,14.39
2023-05-13T10:53:10.666Z,14.51
2023-05-13T10:55:44.019Z,14.75
2023-05-13T10:58:12.281Z,14.58
2023-05-13T11:00:39.963Z,15.24
2023-05-13T11:03:13.991Z,15.43
2023-05-13T11:05:44.809Z,15.10
2023-05-13T11:08:12.056Z,15.12
2023-05-13T11:10:40.825Z,15.31
2023-05-13T11:13:13.621Z,15.18
2023-05-13T11:15:49.709Z,14.97
2023-05-13T11:18:16.484Z,15.69
2023-05-13T11:20:52.507Z,15.55
2023-05-13T11:23:20.442Z,15.47
2023-05-13T11:25:47.524Z,15.93
2023-05-13T11:28:18.716Z,16.39
2023-05-13T11:30:53.650Z,16.58
2023-05-13T11:33:20.319Z,16.63
2023-05-13T11:35:54.101Z,16.65
2023-05-13T11:38:25.165Z,16.32
2023-05-13T11:40:52.761Z,15.78
2023-05-13T11:43:20.870Z,16.25
2023-05-13T11:45:48.032Z,16.18
2023-05-13T11:48:24.311Z,16.43
2023-05-13T11:50:52.177Z,16.16
2023-05-13T11:53:22.723Z,16.58
2023-05-13T11:55:49.980Z,16.15
2023-05-13T11:58:16.704Z,16.20
2023-05-13T12:00:46.308Z,16.13
2023-05-13T12:03:15.276Z,16.35
2023-05-13T12:05:44.555Z,16.16
2023-05-13T12:08:11.657Z,15.99
2023-05-13T12:10:45.142Z,16.28
2023-05-13T12:13:12.541Z,16.37
2023-05-13T12:15:39.382Z,16.44
2023-05-13T12:18:06.829Z,16.10
2023-05-13T12:20:33.743Z,15.40
2023-05-13T12:23:01.081Z,15.61
2023-05-13T12:25:48.043Z,15.92
2023-05-13T12:28:22.222Z,16.22
2023-05-13T12:30:50.773Z,15.84
2023-05-13T12:33:18.568Z,15.48
2023-05-13T12:35:46.893Z,15.67
2023-05-13T12:38:17.934Z,15.51
2023-05-13T12:40:45.315Z,15.84
2023-05-13T12:43:12.853Z,15.60
2023-05-13T12:45:43.277Z,15.54
2023-05-13T12:48:12.176Z,15.15
2023-05-13T12:50:38.880Z,15.05
2023-05-13T12:53:05.986Z,15.03
2023-05-13T12:55:33.039Z,15.74
2023-05-13T12:58:00.809Z,15.75
2023-05-13T13:00:27.554Z,15.81
2023-05-13T13:02:54.518Z,15.10
2023-05-13T13:05:24.980Z,15.64
2023-05-13T13:07:52.025Z,15.90
2023-05-13T13:10:18.814Z,15.82
2023-05-13T13:12:45.450Z,15.63
2023-05-13T13:15:12.457Z,15.58
2023-05-13T13:17:39.260Z,15.92
2023-05-13T13:20:07.575Z,15.43
2023-05-13T13:22:35.065Z,15.61
2023-05-13T13:25:01.749Z,15.48
2023-05-13T13:27:28.445Z,15.38
2023-05-13T13:29:55.094Z,15.87
2023-05-13T13:32:21.893Z,16.10
2023-05-13T13:34:48.624Z,16.43
2023-05-13T13:37:15.256Z,16.62
2023-05-13T13:39:42.354Z,16.83
2023-05-13T13:42:09.027Z,16.65
2023-05-13T13:44:37.468Z,16.50
2023-05-13T13:47:04.234Z,15.79
2023-05-13T13:49:30.942Z,15.86
2023-05-13T13:51:57.675Z,15.84
2023-05-13T13:54:24.376Z,16.35
2023-05-13T13:56:51.070Z,16.91
2023-05-13T13:59:19.410Z,16.49
2023-05-13T14:01:46.212Z,16.06
2023-05-13T14:04:12.943Z,16.78
2023-05-13T14:06:39.714Z,16.81
2023-05-13T14:09:06.691Z,16.35
2023-05-13T14:11:33.619Z,17.12
2023-05-13T14:14:00.306Z,16.75
2023-05-13T14:16:27.069Z,17.18
2023-05-13T14:18:53.885Z,17.33
2023-05-13T14:21:20.696Z,17.43
2023-05-13T14:23:47.356Z,17.51
2023-05-13T14:26:15.852Z,16.72
2023-05-13T14:28:42.820Z,17.58
2023-05-13T14:31:09.514Z,17.58
2023-05-13T14:33:36.419Z,17.30
2023-05-13T14:36:03.101Z,17.11
2023-05-13T14:38:29.804Z,17.19
2023-05-13T14:40:56.495Z,16.85
2023-05-13T14:43:26.131Z,17.37
2023-05-13T14:45:52.833Z,17.30
2023-05-13T14:48:19.981Z,17.82
2023-05-13T14:50:47.098Z,17.29
2023-05-13T14:53:13.974Z,17.35
2023-05-13T14:55:40.636Z,16.93
2023-05-13T14:58:10.100Z,16.26
2023-05-13T15:00:39.990Z,17.26
2023-05-13T15:03:06.799Z,17.60
2023-05-13T15:05:33.553Z,17.56
2023-05-13T15:08:01.110Z,16.76
2023-05-13T15:10:27.778Z,16.78
2023-05-13T15:12:54.423Z,17.11
2023-05-13T15:15:21.052Z,17.51
2023-05-13T15:17:47.841Z,17.35
2023-05-13T15:20:14.501Z,17.49
2023-05-13T15:22:41.157Z,16.71
2023-05-13T15:25:08.212Z,17.58
2023-05-13T15:27:35.018Z,17.79
2023-05-13T15:30:01.897Z,17.49
2023-05-13T15:32:28.753Z,18.16
2023-05-13T15:34:55.514Z,18.32
2023-05-13T15:37:22.212Z,17.59
2023-05-13T15:39:48.857Z,17.16
2023-05-13T15:42:16.001Z,17.22
2023-05-13T15:44:42.619Z,17.41
2023-05-13T15:47:09.438Z,17.33
2023-05-13T15:49:36.624Z,17.23
2023-05-13T15:52:06.192Z,17.25
2023-05-13T15:54:34.152Z,17.59
2023-05-13T15:57:00.975Z,17.35
2023-05-13T15:59:27.705Z,17.12
2023-05-13T16:01:54.601Z,16.49
2023-05-13T16:04:21.368Z,16.94
2023-05-13T16:06:48.062Z,17.02
2023-05-13T16:09:14.759Z,16.93
2023-05-13T16:11:43.665Z,17.48
2023-05-13T16:14:10.420Z,17.09
2023-05-13T16:16:37.547Z,16.82
2023-05-13T16:19:04.777Z,17.10
2023-05-13T16:21:31.914Z,17.25
2023-05-13T16:23:58.699Z,17.14
2023-05-13T16:26:26.481Z,17.61
2023-05-13T16:28:53.154Z,17.53
2023-05-13T16:31:19.905Z,16.85
2023-05-13T16:33:46.561Z,17.43
2023-05-13T16:36:13.251Z,16.74
2023-05-13T16:38:41.718Z,17.11
2023-05-13T16:41:08.580Z,16.71
2023-05-13T16:43:35.404Z,16.67
2023-05-13T16:46:02.202Z,17.27
2023-05-13T16:48:29.265Z,16.78
2023-05-13T16:50:56.364Z,16.35
2023-05-13T16:53:23.242Z,16.58
2023-05-13T16:55:50.212Z,16.25
2023-05-13T16:58:17.124Z,16.52
2023-05-13T17:00:43.993Z,16.23
2023-05-13T17:03:11.290Z,16.38
2023-05-13T17:05:38.500Z,16.77
2023-05-13T17:08:05.182Z,16.95
2023-05-13T17:10:31.922Z,16.98
2023-05-13T17:12:58.632Z,16.38
2023-05-13T17:15:25.453Z,16.63
2023-05-13T17:17:52.143Z,16.15
2023-05-13T17:20:19.938Z,16.90
2023-05-13T17:22:47.744Z,16.52
2023-05-13T17:25:14.904Z,16.28
2023-05-13T17:27:41.652Z,16.56
2023-05-13T17:30:08.769Z,16.85
2023-05-13T17:32:35.890Z,17.27
2023-05-13T17:35:03.562Z,16.61
2023-05-13T17:37:30.212Z,15.89
2023-05-13T17:40:00.876Z,16.45
2023-05-13T17:42:29.176Z,15.86
2023-05-13T17:44:56.292Z,15.97
2023-05-13T17:47:23.016Z,15.79
2023-05-13T17:49:49.923Z,15.82
2023-05-13T17:52:16.628Z,16.30
2023-05-13T17:54:43.368Z,15.83
2023-05-13T17:57:11.259Z,16.11
2023-05-13T17:59:38.251Z,16.15
2023-05-13T18:02:05.031Z,15.94
2023-05-13T18:04:31.772Z,16.24
2023-05-13T18:06:58.536Z,16.53
2023-05-13T18:09:25.186Z,16.23
2023-05-13T18:11:51.928Z,16.58
2023-05-13T18:14:18.820Z,16.37
2023-05-13T18:16:45.639Z,15.82
2023-05-13T18:19:12.467Z,15.99
2023-05-13T18:21:39.197Z,16.16
2023-05-13T18:24:06.174Z,15.68
2023-05-13T18:26:32.837Z,15.87
2023-05-13T18:28:59.541Z,15.19
2023-05-13T18:31:26.568Z,15.62
2023-05-13T18:33:53.381Z,16.35
2023-05-13T18:36:20.041Z,15.52
2023-05-13T18:38:48.098Z,16.17
2023-05-13T18:41:15.174Z,16.10
2023-05-13T18:43:41.884Z,15.95
2023-05-13T18:46:08.972Z,16.01
2023-05-13T18:48:35.782Z,16.25
2023-05-13T18:51:02.454Z,16.38
2023-05-13T18:53:29.118Z,16.57
2023-05-13T18:55:56.011Z,15.65
2023-05-13T18:58:22.923Z,15.83
2023-05-13T19:00:49.607Z,15.18
2023-05-13T19:03:16.641Z,15.47
2023-05-13T19:05:43.512Z,15.24
2023-05-13T19:08:10.148Z,15.18
2023-05-13T19:10:40.022Z,15.43
2023-05-13T19:13:07.310Z,15.13
2023-05-13T19:15:34.081Z,15.96
2023-05-13T19:18:01.232Z,15.85
2023-05-13T19:20:28.033Z,16.30
2023-05-13T19:22:54.691Z,16.11
2023-05-13T19:25:21.486Z,15.21
2023-05-13T19:27:49.587Z,15.61
2023-05-13T19:30:16.319Z,16.18
2023-05-13T19:32:43.946Z,15.29
2023-05-13T19:35:11.634Z,15.07
2023-05-13T19:37:38.348Z,15.80
2023-05-13T19:40:05.543Z,15.38
2023-05-13T19:42:32.342Z,15.33
2023-05-13T19:44:58.997Z,15.48
2023-05-13T19:47:27.114Z,14.50
2023-05-13T19:49:53.982Z,14.86
2023-05-13T19:52:21.009Z,15.51
2023-05-13T19:54:47.631Z,15.05
2023-05-13T19:57:14.277Z,14.93
2023-05-13T19:59:41.924Z,14.56
2023-05-13T20:02:08.859Z,14.82
2023-05-13T20:04:35.720Z,14.85
2023-05-13T20:07:02.382Z,14.52
2023-05-13T20:09:29.060Z,14.31
2023-05-13T20:11:55.759Z,14.23
2023-05-13T20:14:28.675Z,14.42
2023-05-13T20:16:55.559Z,14.98
2023-05-13T20:19:22.433Z,15.12
2023-05-13T20:21:49.111Z,14.54
2023-05-13T20:24:15.974Z,14.75
2023-05-13T20:26:42.624Z,14.79
2023-05-13T20:29:09.275Z,14.54
2023-05-13T20:31:35.938Z,14.85
2023-05-13T20:34:03.582Z,14.50
2023-05-13T20:36:30.278Z,14.45
2023-05-13T20:38:57.252Z,14.17
2023-05-13T20:41:24.061Z,14.60
2023-05-13T20:43:50.768Z,14.21
2023-05-13T20:46:17.692Z,14.20
2023-05-13T20:48:44.412Z,14.67
2023-05-13T20:51:11.673Z,14.77
2023-05-13T20:53:38.366Z,14.15
2023-05-13T20:56:05.529Z,14.41
2023-05-13T20:58:32.188Z,14.23
2023-05-13T21:00:58.855Z,14.23
2023-05-13T21:03:25.574Z,14.05
2023-05-13T21:05:52.326Z,14.40
2023-05-13T21:08:19.045Z,14.24
2023-05-13T21:10:45.700Z,14.04
2023-05-13T21:13:12.423Z,13.79
2023-05-13T21:15:39.069Z,13.92
2023-05-13T21:18:05.862Z,13.97
2023-05-13T21:20:32.917Z,13.88
2023-05-13T21:23:01.104Z,13.74
2023-05-13T21:25:27.949Z,14.01
2023-05-13T21:27:55.067Z,13.93
2023-05-13T21:30:21.947Z,13.73
2023-05-13T21:32:48.763Z,13.92
2023-05-13T21:35:15.953Z,13.73
2023-05-13T21:37:43.175Z,13.80
2023-05-13T21:40:10.669Z,13.97
2023-05-13T21:42:37.356Z,14.03
2023-05-13T21:45:04.102Z,14.07
2023-05-13T21:47:30.773Z,13.90
2023-05-13T21:49:57.524Z,13.96
2023-05-13T21:52:24.228Z,13.58
2023-05-13T21:54:51.282Z,14.21
2023-05-13T21:57:17.994Z,14.34
2023-05-13T21:59:44.693Z,14.29
2023-05-13T22:02:11.464Z,14.33
2023-05-13T22:04:38.124Z,13.73
2023-05-13T22:07:04.969Z,14.35
2023-05-13T22:09:31.716Z,14.50
2023-05-13T22:11:58.362Z,13.69
2023-05-13T22:14:25.034Z,13.23
2023-05-13T22:17:01.244Z,13.34
2023-05-13T22:19:35.667Z,13.71
2023-05-13T22:22:02.366Z,13.32
2023-05-13T22:24:28.990Z,13.37
2023-05-13T22:26:55.707Z,13.26
2023-05-13T22:29:22.458Z,13.53
2023-05-13T22:31:49.241Z,13.46
2023-05-13T22:34:15.904Z,13.51
2023-05-13T22:36:43.969Z,13.29
2023-05-13T22:39:12.371Z,13.13
2023-05-13T22:41:39.067Z,13.25
2023-05-13T22:44:05.792Z,13.18
2023-05-13T22:46:32.595Z,13.23
2023-05-13T22:48:59.300Z,13.33
2023-05-13T22:51:25.983Z,13.71
2023-05-13T22:53:52.618Z,13.82
2023-05-13T22:56:19.271Z,13.74
2023-05-13T22:58:46.328Z,13.33
2023-05-13T23:01:13.187Z,13.20
2023-05-13T23:03:39.951Z,13.95
2023-05-13T23:06:06.681Z,13.70
2023-05-13T23:08:33.429Z,13.20
2023-05-13T23:11:00.111Z,13.78
2023-05-13T23:13:26.747Z,13.74
2023-05-13T23:15:53.492Z,13.83
2023-05-13T23:18:20.151Z,13.66
2023-05-13T23:20:51.319Z,13.29
2023-05-13T23:23:18.067Z,13.76
2023-05-13T23:25:45.694Z,13.72
2023-05-13T23:28:12.455Z,13.44
2023-05-13T23:30:39.475Z,14.01
2023-05-13T23:33:06.236Z,13.31
2023-05-13T23:35:33.338Z,13.39
2023-05-13T23:38:02.194Z,14.02
2023-05-13T23:40:28.983Z,13.45
2023-05-13T23:42:55.588Z,13.58
2023-05-13T23:45:22.257Z,13.60
2023-05-13T23:47:50.153Z,13.52
2023-05-13T23:50:16.826Z,13.44
2023-05-13T23:52:43.514Z,13.44
2023-05-13T23:55:10.261Z,13.71
2023-05-13T23:57:36.892Z,13.54
